Time;durP1;ratioP1;P1;durP2;ratioP2;P2;SDS_P1;SDS_P2;PMS_P1;PMS_P2;Temp;Humidity;BMP_temperature;BMP_pressure;BME280_temperature;BME280_humidity;BME280_pressure;Samples;Min_cycle;Max_cycle;Signal;HPM_P1;HPM_P2
2022/05/21 00:01:02;;;;;;;10.23;7.57;;;12.60;99.90;;;;;;5013495;28;20324;-55
2022/05/21 00:03:29;;;;;;;11.40;7.73;;;12.80;99.90;;;;;;5024961;28;20188;-55
2022/05/21 00:05:56;;;;;;;14.27;7.87;;;12.60;99.90;;;;;;5018253;28;20271;-56
2022/05/21 00:08:23;;;;;;;12.83;7.80;;;12.60;99.90;;;;;;5023975;28;20216;-55
2022/05/21 00:10:50;;;;;;;10.27;6.90;;;12.80;99.90;;;;;;5023234;28;20240;-55
2022/05/21 00:13:17;;;;;;;8.50;7.00;;;12.80;99.90;;;;;;5021491;28;20224;-54
2022/05/21 00:15:45;;;;;;;11.40;7.07;;;12.60;99.90;;;;;;5017097;28;20289;-54
2022/05/21 00:18:11;;;;;;;11.03;8.13;;;12.60;99.90;;;;;;5023122;28;20746;-54
2022/05/21 00:20:47;;;;;;;10.63;7.10;;;12.60;99.90;;;;;;5026796;28;20195;-54
2022/05/21 00:23:19;;;;;;;12.23;6.90;;;12.70;99.90;;;;;;5022516;28;20246;-54
2022/05/21 00:25:48;;;;;;;8.67;6.93;;;12.70;99.90;;;;;;5030307;28;20188;-54
2022/05/21 00:28:16;;;;;;;9.50;7.07;;;12.70;99.90;;;;;;5020555;28;20322;-54
2022/05/21 00:30:44;;;;;;;10.30;6.80;;;12.60;99.90;;;;;;5026762;28;20231;-54
2022/05/21 00:33:11;;;;;;;12.47;7.20;;;12.60;99.90;;;;;;5023224;28;20247;-54
2022/05/21 00:35:38;;;;;;;11.13;6.93;;;12.70;99.90;;;;;;5025374;28;20667;-54
2022/05/21 00:38:05;;;;;;;8.07;6.50;;;12.70;99.90;;;;;;5020582;28;20607;-55
2022/05/21 00:40:32;;;;;;;12.47;6.33;;;12.70;99.90;;;;;;5023149;28;20295;-54
2022/05/21 00:42:58;;;;;;;9.73;6.60;;;12.80;99.90;;;;;;5025753;28;20199;-55
2022/05/21 00:45:25;;;;;;;11.37;7.20;;;12.70;99.90;;;;;;5021298;28;20220;-54
2022/05/21 00:47:52;;;;;;;9.17;5.93;;;12.70;99.90;;;;;;5023879;28;20739;-54
2022/05/21 00:50:24;;;;;;;8.93;6.27;;;12.70;99.90;;;;;;5025923;28;20210;-54
2022/05/21 00:52:53;;;;;;;8.43;5.60;;;12.70;99.90;;;;;;5018519;28;20231;-53
2022/05/21 00:55:27;;;;;;;7.47;5.67;;;12.70;99.90;;;;;;5024094;28;20242;-53
2022/05/21 01:00:52;;;;;;;8.53;6.00;;;12.70;99.90;;;;;;5018611;28;20232;-55
2022/05/21 01:03:19;;;;;;;9.10;5.77;;;12.70;99.90;;;;;;5022513;28;20211;-54
2022/05/21 01:05:47;;;;;;;12.73;6.07;;;12.70;99.90;;;;;;5015480;28;20278;-54
2022/05/21 01:08:15;;;;;;;9.00;5.23;;;12.70;99.90;;;;;;5021903;28;20208;-54
2022/05/21 01:10:49;;;;;;;10.43;5.13;;;12.60;99.90;;;;;;5028175;28;20243;-54
2022/05/21 01:13:19;;;;;;;8.30;5.20;;;12.70;99.90;;;;;;5007619;28;20202;-54
2022/05/21 01:15:49;;;;;;;9.53;6.10;;;12.70;99.90;;;;;;5018353;28;20334;-54
2022/05/21 01:18:16;;;;;;;11.67;6.37;;;12.70;99.90;;;;;;5013164;28;20244;-54
2022/05/21 01:20:47;;;;;;;10.37;5.53;;;12.70;99.90;;;;;;5015038;28;20641;-53
2022/05/21 01:23:16;;;;;;;7.63;5.10;;;12.70;99.90;;;;;;5022452;28;20232;-54
2022/05/21 01:25:44;;;;;;;9.60;5.43;;;12.80;99.90;;;;;;5030691;28;20676;-53
2022/05/21 01:28:13;;;;;;;9.20;5.43;;;12.80;99.90;;;;;;5023663;28;20259;-53
2022/05/21 01:30:53;;;;;;;10.33;6.30;;;12.90;99.90;;;;;;5029903;28;20605;-55
2022/05/21 01:33:27;;;;;;;8.70;5.30;;;12.70;99.90;;;;;;5022446;28;20200;-56
2022/05/21 01:35:54;;;;;;;11.10;5.20;;;12.90;99.90;;;;;;5021740;28;20673;-55
2022/05/21 01:38:22;;;;;;;10.87;5.63;;;12.80;99.90;;;;;;5020712;28;20304;-54
2022/05/21 01:40:50;;;;;;;11.53;5.80;;;12.80;99.90;;;;;;5019626;28;20209;-54
2022/05/21 01:46:03;;;;;;;7.17;5.30;;;12.90;99.90;;;;;;5023930;28;20300;-55
2022/05/21 01:48:31;;;;;;;9.77;5.87;;;12.90;99.90;;;;;;5016925;28;20197;-57
2022/05/21 01:51:05;;;;;;;9.93;6.67;;;13.00;99.90;;;;;;5020745;28;20204;-54
2022/05/21 01:53:33;;;;;;;11.63;6.63;;;12.80;99.90;;;;;;5018572;28;20619;-57
2022/05/21 01:56:01;;;;;;;10.33;6.07;;;12.90;99.90;;;;;;5023907;28;20278;-55
2022/05/21 01:58:28;;;;;;;8.33;5.50;;;13.00;99.90;;;;;;5020307;28;20648;-54
2022/05/21 02:00:56;;;;;;;10.70;5.80;;;13.10;99.90;;;;;;5018250;28;20708;-54
2022/05/21 02:03:24;;;;;;;11.40;5.60;;;12.90;99.90;;;;;;5022622;28;20239;-54
2022/05/21 02:05:51;;;;;;;14.77;6.27;;;12.90;99.90;;;;;;5017642;28;20651;-54
2022/05/21 02:08:18;;;;;;;9.77;5.60;;;12.80;99.90;;;;;;5020974;28;20850;-54
2022/05/21 02:10:46;;;;;;;9.27;5.70;;;12.90;99.90;;;;;;5021876;28;20279;-54
2022/05/21 02:13:20;;;;;;;9.40;5.57;;;12.90;99.90;;;;;;5018768;28;20298;-54
2022/05/21 02:15:46;;;;;;;8.23;6.70;;;13.00;99.90;;;;;;5020956;28;20265;-54
2022/05/21 02:18:14;;;;;;;13.07;6.40;;;12.90;99.90;;;;;;5023863;28;20243;-54
2022/05/21 02:20:41;;;;;;;13.07;6.30;;;12.90;99.90;;;;;;5021972;28;20292;-55
2022/05/21 02:23:10;;;;;;;9.97;6.17;;;12.90;99.90;;;;;;5017642;28;21005;-55
2022/05/21 02:25:37;;;;;;;11.33;6.33;;;13.00;99.90;;;;;;5023530;28;20232;-55
2022/05/21 02:28:05;;;;;;;11.90;6.63;;;13.00;99.90;;;;;;5016174;28;20343;-53
2022/05/21 02:30:32;;;;;;;16.03;6.97;;;13.00;99.90;;;;;;5020231;28;20621;-54
2022/05/21 02:32:59;;;;;;;17.47;6.97;;;13.00;99.90;;;;;;5019743;28;20652;-55
2022/05/21 02:35:26;;;;;;;13.97;7.23;;;13.00;99.90;;;;;;5017369;28;20763;-54
2022/05/21 02:40:38;;;;;;;14.27;6.63;;;13.00;99.90;;;;;;5022778;28;20287;-54
2022/05/21 02:43:05;;;;;;;11.87;7.43;;;13.00;99.90;;;;;;5018972;28;20719;-55
2022/05/21 02:45:32;;;;;;;13.20;7.50;;;12.90;99.90;;;;;;5017250;28;20220;-54
2022/05/21 02:47:59;;;;;;;11.27;7.73;;;13.10;99.90;;;;;;5018898;28;20205;-54
2022/05/21 02:50:32;;;;;;;10.30;6.87;;;13.10;99.90;;;;;;5021230;28;20254;-56
2022/05/21 02:53:05;;;;;;;13.90;6.70;;;13.10;99.90;;;;;;5020968;28;20644;-54
2022/05/21 02:55:33;;;;;;;19.03;7.90;;;13.20;99.90;;;;;;5018460;28;20675;-54
2022/05/21 02:58:00;;;;;;;11.13;7.27;;;13.20;99.90;;;;;;5019879;28;20295;-56
2022/05/21 03:00:31;;;;;;;16.43;8.00;;;13.20;99.90;;;;;;5019767;28;20405;-54
2022/05/21 03:02:59;;;;;;;17.13;8.33;;;13.20;99.90;;;;;;5026889;28;20664;-54
2022/05/21 03:05:29;;;;;;;11.20;6.93;;;13.20;99.90;;;;;;5017515;28;20240;-54
2022/05/21 03:07:56;;;;;;;15.87;7.63;;;13.20;99.90;;;;;;5021308;28;20447;-54
2022/05/21 03:10:28;;;;;;;15.60;7.60;;;13.20;99.90;;;;;;5020598;28;20193;-54
2022/05/21 03:13:02;;;;;;;18.17;7.67;;;13.10;99.90;;;;;;5015667;28;20262;-54
2022/05/21 03:15:36;;;;;;;15.23;7.63;;;13.10;99.90;;;;;;5024013;28;20759;-55
2022/05/21 03:18:08;;;;;;;15.23;7.27;;;13.20;99.90;;;;;;5019417;28;20235;-54
2022/05/21 03:20:35;;;;;;;10.67;6.57;;;13.20;99.90;;;;;;5018200;28;20208;-54
2022/05/21 03:23:02;;;;;;;14.13;6.90;;;13.20;99.90;;;;;;5020120;28;20278;-53
2022/05/21 03:25:30;;;;;;;12.50;6.50;;;13.20;99.90;;;;;;5018860;28;20232;-53
2022/05/21 03:27:57;;;;;;;13.80;7.97;;;13.30;99.90;;;;;;5020841;28;20232;-53
2022/05/21 03:30:27;;;;;;;18.07;8.10;;;13.20;99.90;;;;;;5022719;28;20310;-53
2022/05/21 03:32:54;;;;;;;17.03;8.43;;;13.20;99.90;;;;;;5016339;28;20612;-53
2022/05/21 03:35:22;;;;;;;12.77;7.10;;;13.20;99.90;;;;;;5022433;28;20276;-54
2022/05/21 03:37:51;;;;;;;14.33;7.33;;;13.20;99.90;;;;;;5020623;28;20239;-54
2022/05/21 03:40:30;;;;;;;12.13;6.97;;;13.20;99.90;;;;;;5023183;28;20279;-53
2022/05/21 03:42:57;;;;;;;14.97;7.10;;;13.20;99.90;;;;;;5025125;28;20579;-55
2022/05/21 03:45:25;;;;;;;16.50;7.83;;;13.20;99.90;;;;;;5026388;28;20307;-56
2022/05/21 03:47:52;;;;;;;14.00;7.00;;;13.10;99.90;;;;;;5023063;28;20232;-54
2022/05/21 03:50:22;;;;;;;19.43;6.80;;;13.00;99.90;;;;;;5022691;28;20291;-53
2022/05/21 03:52:49;;;;;;;15.17;7.13;;;13.10;99.90;;;;;;5022094;28;20224;-54
2022/05/21 03:55:16;;;;;;;13.03;7.90;;;13.10;99.90;;;;;;5005134;28;20724;-54
2022/05/21 03:57:43;;;;;;;13.10;6.87;;;13.20;99.90;;;;;;5021049;28;20784;-54
2022/05/21 04:00:14;;;;;;;17.30;8.20;;;13.10;99.90;;;;;;5025433;28;20300;-54
2022/05/21 04:02:41;;;;;;;14.13;7.37;;;13.20;99.90;;;;;;5020890;28;20205;-54
2022/05/21 04:05:09;;;;;;;12.57;6.63;;;13.10;99.90;;;;;;5024080;28;20763;-54
2022/05/21 04:07:37;;;;;;;17.03;7.27;;;13.20;99.90;;;;;;5023064;28;20224;-53
2022/05/21 04:10:05;;;;;;;19.93;6.67;;;13.10;99.90;;;;;;5025218;28;20248;-53
2022/05/21 04:12:32;;;;;;;12.47;6.63;;;13.10;99.90;;;;;;5016770;28;20236;-54
2022/05/21 04:14:59;;;;;;;19.53;7.20;;;13.00;99.90;;;;;;5025769;28;20761;-54
2022/05/21 04:17:26;;;;;;;19.03;7.13;;;13.00;99.90;;;;;;5020371;28;20288;-54
2022/05/21 04:19:54;;;;;;;12.07;6.43;;;13.00;99.90;;;;;;5023738;28;20272;-56
2022/05/21 04:22:21;;;;;;;15.37;6.53;;;13.00;99.90;;;;;;5022984;28;20268;-55
2022/05/21 04:24:48;;;;;;;11.40;5.90;;;12.90;99.90;;;;;;5022057;28;20331;-54
2022/05/21 04:27:15;;;;;;;18.03;6.03;;;12.90;99.90;;;;;;5021443;28;20224;-54
2022/05/21 04:29:42;;;;;;;15.00;6.37;;;12.90;99.90;;;;;;5024659;28;20204;-55
2022/05/21 04:32:09;;;;;;;12.90;6.30;;;12.90;99.90;;;;;;5023850;28;20245;-54
2022/05/21 04:34:36;;;;;;;14.93;5.83;;;12.80;99.90;;;;;;5024287;28;20556;-55
2022/05/21 04:37:03;;;;;;;14.20;5.60;;;12.90;99.90;;;;;;5021738;28;20283;-54
2022/05/21 04:39:29;;;;;;;11.50;6.07;;;13.00;99.90;;;;;;5020803;28;20238;-54
2022/05/21 04:41:58;;;;;;;14.47;6.93;;;13.00;99.90;;;;;;5021884;28;20562;-55
2022/05/21 04:44:30;;;;;;;16.37;5.90;;;12.90;99.90;;;;;;5016487;28;20250;-55
2022/05/21 04:46:58;;;;;;;13.07;5.53;;;12.80;99.90;;;;;;5017333;28;20399;-53
2022/05/21 04:49:26;;;;;;;12.67;5.33;;;12.90;99.90;;;;;;5019974;28;20292;-53
2022/05/21 04:51:53;;;;;;;10.53;5.17;;;13.00;99.90;;;;;;5021322;28;20227;-54
2022/05/21 04:54:20;;;;;;;13.97;4.53;;;12.90;99.90;;;;;;5018436;28;20201;-54
2022/05/21 04:56:46;;;;;;;12.40;5.23;;;13.00;99.90;;;;;;5023736;28;20215;-56
2022/05/21 04:59:13;;;;;;;16.03;5.10;;;13.00;99.90;;;;;;5016621;28;20208;-54
2022/05/21 05:01:41;;;;;;;18.80;6.00;;;13.00;99.90;;;;;;5020202;28;20204;-54
2022/05/21 05:04:09;;;;;;;13.47;4.93;;;12.90;99.90;;;;;;5023763;28;20250;-54
2022/05/21 05:06:36;;;;;;;12.20;4.57;;;13.00;99.90;;;;;;5018161;28;20361;-54
2022/05/21 05:09:05;;;;;;;12.20;4.50;;;13.10;99.90;;;;;;5018808;28;20212;-53
2022/05/21 05:11:32;;;;;;;12.87;4.23;;;13.00;99.90;;;;;;5020091;28;20259;-55
2022/05/21 05:13:59;;;;;;;14.93;5.07;;;13.10;99.90;;;;;;5018084;28;20219;-55
2022/05/21 05:16:26;;;;;;;9.77;4.30;;;13.10;99.90;;;;;;5018547;28;20307;-53
2022/05/21 05:18:53;;;;;;;11.93;4.63;;;13.10;99.90;;;;;;5023890;28;20283;-54
2022/05/21 05:21:20;;;;;;;17.23;4.97;;;13.10;99.90;;;;;;5020644;28;20259;-54
2022/05/21 05:23:46;;;;;;;16.53;5.03;;;13.20;99.90;;;;;;5011920;28;20346;-54
2022/05/21 05:26:13;;;;;;;18.90;4.80;;;13.30;99.90;;;;;;5021076;28;20216;-55
2022/05/21 05:28:40;;;;;;;17.73;4.23;;;13.40;99.90;;;;;;5016800;28;20204;-54
2022/05/21 05:31:08;;;;;;;15.73;4.47;;;13.30;99.90;;;;;;5018985;28;20204;-54
2022/05/21 05:33:35;;;;;;;20.90;4.40;;;13.50;99.90;;;;;;5019183;28;20225;-54
2022/05/21 05:36:02;;;;;;;12.23;4.57;;;13.50;99.90;;;;;;5019762;28;20753;-54
2022/05/21 05:38:29;;;;;;;15.67;4.30;;;13.40;99.90;;;;;;5017940;28;20206;-58
2022/05/21 05:40:55;;;;;;;12.60;4.50;;;13.50;99.90;;;;;;5018676;28;20294;-57
2022/05/21 05:43:23;;;;;;;16.13;5.67;;;13.60;99.90;;;;;;5021133;28;20204;-54
2022/05/21 05:45:53;;;;;;;14.17;4.70;;;13.60;99.90;;;;;;5025252;28;20218;-53
2022/05/21 05:48:20;;;;;;;14.30;4.37;;;13.60;99.90;;;;;;5021476;28;20259;-54
2022/05/21 05:50:53;;;;;;;12.47;4.67;;;13.70;99.90;;;;;;5018548;28;20299;-55
2022/05/21 05:53:21;;;;;;;19.63;4.80;;;13.70;99.90;;;;;;5024021;28;20285;-54
2022/05/21 05:55:48;;;;;;;14.77;5.20;;;13.70;99.90;;;;;;5020212;28;20200;-54
2022/05/21 06:01:01;;;;;;;14.07;4.27;;;13.70;99.90;;;;;;5018370;28;20633;-54
2022/05/21 06:03:27;;;;;;;10.43;5.00;;;13.60;99.90;;;;;;5018169;28;20252;-53
2022/05/21 06:05:54;;;;;;;12.40;5.10;;;13.60;99.90;;;;;;5017162;28;20264;-54
2022/05/21 06:08:21;;;;;;;16.93;6.17;;;13.70;99.90;;;;;;5021596;28;20204;-53
2022/05/21 06:10:49;;;;;;;11.90;4.57;;;13.70;99.90;;;;;;5017379;28;20202;-53
2022/05/21 06:13:16;;;;;;;12.37;4.90;;;13.70;99.90;;;;;;5020626;28;20683;-54
2022/05/21 06:15:43;;;;;;;14.50;5.03;;;13.90;99.90;;;;;;5022118;28;20196;-54
2022/05/21 06:18:17;;;;;;;14.70;5.43;;;13.90;99.90;;;;;;5021131;28;20209;-54
2022/05/21 06:20:44;;;;;;;19.40;5.47;;;13.90;99.90;;;;;;5023089;28;20212;-54
2022/05/21 06:23:12;;;;;;;12.13;4.17;;;13.90;99.90;;;;;;5020942;28;20265;-53
2022/05/21 06:25:39;;;;;;;11.20;4.60;;;14.00;99.90;;;;;;5025313;28;20220;-54
2022/05/21 06:28:07;;;;;;;13.77;4.67;;;14.10;99.90;;;;;;5009956;28;20615;-53
2022/05/21 06:30:38;;;;;;;14.53;4.47;;;14.10;99.90;;;;;;5024494;28;20225;-53
2022/05/21 06:33:20;;;;;;;12.33;4.40;;;14.10;99.90;;;;;;5019897;28;20248;-54
2022/05/21 06:35:49;;;;;;;13.63;4.37;;;14.20;99.90;;;;;;5027763;28;20212;-54
2022/05/21 06:38:16;;;;;;;10.93;4.20;;;14.20;99.90;;;;;;5026292;28;20290;-54
2022/05/21 06:40:43;;;;;;;11.87;4.60;;;14.10;99.90;;;;;;5025236;28;20320;-53
2022/05/21 06:43:10;;;;;;;18.10;5.73;;;14.20;99.90;;;;;;5022536;28;20321;-54
2022/05/21 06:45:37;;;;;;;18.43;5.97;;;14.00;99.90;;;;;;5025570;28;20528;-54
2022/05/21 06:48:06;;;;;;;14.10;6.07;;;14.10;99.90;;;;;;5021083;28;20563;-54
2022/05/21 06:50:34;;;;;;;13.27;6.50;;;14.10;99.90;;;;;;5025179;28;20296;-54
2022/05/21 06:53:01;;;;;;;16.40;5.40;;;14.00;99.90;;;;;;5024133;28;20217;-53
2022/05/21 06:55:29;;;;;;;14.83;5.53;;;14.20;99.90;;;;;;5028139;28;20207;-54
2022/05/21 06:57:55;;;;;;;9.93;5.80;;;14.20;99.90;;;;;;5023027;28;20281;-53
2022/05/21 07:00:23;;;;;;;13.80;6.43;;;14.20;99.90;;;;;;5026867;28;20576;-54
2022/05/21 07:02:52;;;;;;;12.50;7.03;;;14.30;99.90;;;;;;5021377;28;20233;-54
2022/05/21 07:08:15;;;;;;;10.37;5.47;;;14.30;99.90;;;;;;5024523;28;20241;-53
2022/05/21 07:10:42;;;;;;;17.17;6.07;;;14.40;99.90;;;;;;5022140;28;20653;-54
2022/05/21 07:13:09;;;;;;;18.43;6.33;;;14.70;99.90;;;;;;5028155;28;20204;-53
2022/05/21 07:15:35;;;;;;;16.33;5.37;;;14.90;99.90;;;;;;5026636;28;20216;-53
2022/05/21 07:18:03;;;;;;;13.17;5.87;;;15.10;99.90;;;;;;5024568;28;20285;-53
2022/05/21 07:20:31;;;;;;;14.70;6.63;;;15.00;99.90;;;;;;5032011;28;20198;-54
2022/05/21 07:23:00;;;;;;;12.97;5.23;;;14.90;99.90;;;;;;5026178;28;20261;-53
2022/05/21 07:25:30;;;;;;;12.33;4.97;;;15.00;99.90;;;;;;5032555;28;20237;-53
2022/05/21 07:27:58;;;;;;;20.37;5.70;;;14.80;99.90;;;;;;5022871;28;20286;-54
2022/05/21 07:30:25;;;;;;;12.73;4.53;;;14.70;99.90;;;;;;5030618;28;20283;-54
2022/05/21 07:32:55;;;;;;;20.10;4.73;;;14.90;99.90;;;;;;5017708;28;20297;-54
2022/05/21 07:35:24;;;;;;;11.83;3.83;;;15.00;99.90;;;;;;5022009;28;20209;-53
2022/05/21 07:37:51;;;;;;;14.07;5.10;;;15.00;99.90;;;;;;5016014;28;20662;-54
2022/05/21 07:40:21;;;;;;;10.50;4.13;;;15.10;99.90;;;;;;5029246;28;20254;-53
2022/05/21 07:42:48;;;;;;;14.83;4.30;;;15.30;99.90;;;;;;5022428;28;20561;-53
2022/05/21 07:45:17;;;;;;;13.43;4.50;;;15.60;99.90;;;;;;5022434;28;20209;-54
2022/05/21 07:47:44;;;;;;;10.90;4.27;;;15.90;99.90;;;;;;5028506;28;20663;-53
2022/05/21 07:50:12;;;;;;;11.60;4.33;;;15.70;99.90;;;;;;5023168;28;20243;-54
2022/05/21 07:52:39;;;;;;;12.37;4.23;;;15.70;99.90;;;;;;5017337;28;20283;-55
2022/05/21 07:55:07;;;;;;;11.57;4.23;;;15.70;99.90;;;;;;5013536;28;20559;-54
2022/05/21 07:57:34;;;;;;;15.03;3.50;;;15.80;99.90;;;;;;5020002;28;20658;-52
2022/05/21 08:00:05;;;;;;;9.90;3.80;;;15.80;99.90;;;;;;5011509;28;20560;-56
2022/05/21 08:02:31;;;;;;;9.33;2.80;;;15.70;99.90;;;;;;5010823;28;20723;-54
2022/05/21 08:04:59;;;;;;;14.77;3.20;;;15.90;99.90;;;;;;5023124;28;20215;-54
2022/05/21 08:07:26;;;;;;;13.93;3.37;;;15.90;99.90;;;;;;5027848;28;20234;-54
2022/05/21 08:09:53;;;;;;;9.57;2.60;;;16.00;99.90;;;;;;5031031;28;20242;-53
2022/05/21 08:12:20;;;;;;;10.10;3.33;;;15.90;99.90;;;;;;5030299;28;20204;-53
2022/05/21 08:14:47;;;;;;;7.73;3.77;;;15.70;99.90;;;;;;5037301;28;20295;-54
2022/05/21 08:17:14;;;;;;;9.73;2.90;;;16.00;99.90;;;;;;5037870;28;20297;-55
2022/05/21 08:19:41;;;;;;;11.67;2.70;;;16.20;99.90;;;;;;5034268;28;20207;-57
2022/05/21 08:27:40;;;;;;;12.40;3.83;;;15.90;99.90;;;;;;5031264;28;20261;-54
2022/05/21 08:30:07;;;;;;;9.37;3.67;;;16.20;99.90;;;;;;5037525;28;20298;-54
2022/05/21 08:32:35;;;;;;;9.00;3.10;;;16.20;99.90;;;;;;5031512;28;20232;-54
2022/05/21 08:35:02;;;;;;;7.13;2.30;;;16.20;99.90;;;;;;5031929;28;20203;-53
2022/05/21 08:37:30;;;;;;;10.10;2.70;;;16.40;99.90;;;;;;5031419;28;20246;-54
2022/05/21 08:39:58;;;;;;;8.27;2.20;;;16.40;99.90;;;;;;5033134;28;20207;-59
2022/05/21 08:42:39;;;;;;;10.70;3.30;;;16.70;99.90;;;;;;5033970;28;20294;-53
2022/05/21 08:45:16;;;;;;;6.83;2.30;;;16.30;99.90;;;;;;5025897;28;20209;-54
2022/05/21 08:47:49;;;;;;;6.60;2.17;;;16.00;99.90;;;;;;5034329;28;20244;-54
2022/05/21 08:50:20;;;;;;;13.43;3.23;;;15.90;99.90;;;;;;5034825;28;20707;-55
2022/05/21 08:53:13;;;;;;;5.33;1.93;;;15.90;99.90;;;;;;5033223;28;20244;-54
2022/05/21 08:55:45;;;;;;;14.20;2.97;;;16.20;99.90;;;;;;5023743;28;20249;-54
2022/05/21 08:58:36;;;;;;;10.83;3.20;;;16.40;99.90;;;;;;5027275;28;20258;-54
2022/05/21 09:01:03;;;;;;;8.57;2.37;;;16.40;99.90;;;;;;5031612;28;20245;-53
2022/05/21 09:03:30;;;;;;;7.10;2.03;;;16.00;99.90;;;;;;5027455;28;20246;-54
2022/05/21 09:06:06;;;;;;;9.90;2.47;;;16.10;99.90;;;;;;5022587;28;20242;-54
2022/05/21 09:08:50;;;;;;;6.20;2.40;;;16.20;99.90;;;;;;5026299;28;20593;-54
2022/05/21 09:11:34;;;;;;;11.10;2.63;;;16.30;99.90;;;;;;5047227;28;20198;-53
2022/05/21 09:14:15;;;;;;;10.30;2.20;;;16.20;99.90;;;;;;5041732;28;20235;-54
2022/05/21 09:16:56;;;;;;;11.50;2.07;;;16.10;99.90;;;;;;5036276;28;20343;-54
2022/05/21 09:19:46;;;;;;;7.93;1.60;;;16.10;99.90;;;;;;5037991;28;20293;-54
2022/05/21 09:22:15;;;;;;;5.53;2.03;;;16.40;99.90;;;;;;5043010;28;20318;-54
2022/05/21 09:25:18;;;;;;;5.50;1.73;;;17.00;99.90;;;;;;5031054;28;20211;-54
2022/05/21 09:27:47;;;;;;;5.60;1.70;;;17.20;99.90;;;;;;5040262;28;20679;-54
2022/05/21 09:30:22;;;;;;;7.50;2.43;;;17.00;99.90;;;;;;5030343;28;20274;-54
2022/05/21 09:32:56;;;;;;;13.40;2.47;;;17.00;99.90;;;;;;5023351;28;20403;-54
2022/05/21 09:35:26;;;;;;;6.73;2.33;;;16.60;99.90;;;;;;5042358;28;20209;-54
2022/05/21 09:37:53;;;;;;;8.63;2.00;;;16.80;99.90;;;;;;5035233;28;20237;-54
2022/05/21 09:40:31;;;;;;;9.67;1.93;;;17.10;99.90;;;;;;5042983;28;20247;-54
2022/05/21 09:45:44;;;;;;;4.57;2.07;;;17.60;99.90;;;;;;5025033;28;20216;-54
2022/05/21 09:48:11;;;;;;;7.73;2.30;;;17.10;99.90;;;;;;5024440;28;20265;-53
2022/05/21 09:50:54;;;;;;;6.73;1.73;;;17.00;99.90;;;;;;5027070;28;20217;-54
2022/05/21 09:53:39;;;;;;;8.77;2.07;;;16.90;99.90;;;;;;5025725;28;20651;-54
2022/05/21 09:56:23;;;;;;;7.17;1.40;;;17.40;99.90;;;;;;5030296;28;20239;-54
2022/05/21 09:59:07;;;;;;;4.97;1.57;;;17.90;99.90;;;;;;5008751;28;20251;-54
2022/05/21 10:01:42;;;;;;;7.33;2.10;;;18.10;99.90;;;;;;5027131;28;20240;-54
2022/05/21 10:04:18;;;;;;;10.57;1.80;;;17.90;99.90;;;;;;5023628;28;20216;-54
2022/05/21 10:13:06;;;;;;;10.17;2.67;;;18.30;99.90;;;;;;5028503;28;20263;-54
2022/05/21 10:15:43;;;;;;;5.67;1.50;;;18.30;99.90;;;;;;5029015;28;20695;-55
2022/05/21 10:18:33;;;;;;;7.37;1.60;;;18.60;99.90;;;;;;5020082;28;20702;-54
2022/05/21 10:21:17;;;;;;;7.73;1.63;;;18.40;99.90;;;;;;5026042;28;20274;-54
2022/05/21 10:23:52;;;;;;;3.63;1.30;;;18.40;99.90;;;;;;5027601;28;20273;-54
2022/05/21 10:26:34;;;;;;;5.73;1.60;;;18.10;99.90;;;;;;5017592;28;20342;-54
2022/05/21 10:29:37;;;;;;;7.10;1.83;;;18.00;99.90;;;;;;5027710;28;20291;-55
2022/05/21 10:32:17;;;;;;;6.73;1.83;;;18.10;99.90;;;;;;5020739;28;20208;-54
2022/05/21 10:35:18;;;;;;;6.73;2.00;;;18.10;99.90;;;;;;5029510;28;20239;-55
2022/05/21 10:38:05;;;;;;;6.67;1.50;;;18.00;99.90;;;;;;5023882;28;20282;-52
2022/05/21 10:41:00;;;;;;;9.03;2.33;;;17.90;99.90;;;;;;5022674;28;20635;-53
2022/05/21 10:43:59;;;;;;;8.47;1.60;;;17.90;99.90;;;;;;5022073;28;20212;-53
2022/05/21 10:46:36;;;;;;;5.07;1.67;;;17.70;99.90;;;;;;5016925;28;20405;-54
2022/05/21 10:49:15;;;;;;;9.30;1.60;;;17.70;99.90;;;;;;5017090;28;20239;-54
2022/05/21 10:52:02;;;;;;;7.13;1.83;;;17.70;99.90;;;;;;5029456;28;20246;-54
2022/05/21 10:55:06;;;;;;;8.03;1.60;;;17.90;99.90;;;;;;5039314;28;20239;-54
2022/05/21 10:57:48;;;;;;;7.77;1.80;;;18.10;99.90;;;;;;5017614;28;20613;-55
2022/05/21 11:00:31;;;;;;;9.87;2.20;;;18.10;99.90;;;;;;5028942;28;20319;-55
2022/05/21 11:03:07;;;;;;;6.93;1.60;;;17.80;99.90;;;;;;5028718;28;20563;-54
2022/05/21 11:05:55;;;;;;;5.23;2.20;;;17.80;99.90;;;;;;5011435;28;20326;-54
2022/05/21 11:08:39;;;;;;;8.00;2.10;;;17.90;99.90;;;;;;5015972;28;20315;-54
2022/05/21 11:11:25;;;;;;;8.30;2.33;;;18.30;99.90;;;;;;5029146;28;20322;-54
2022/05/21 11:14:02;;;;;;;7.33;1.63;;;18.60;99.90;;;;;;5026315;28;20298;-54
2022/05/21 11:16:48;;;;;;;6.93;2.10;;;19.20;99.90;;;;;;5029265;28;20274;-56
2022/05/21 11:19:44;;;;;;;4.63;1.93;;;19.20;99.90;;;;;;5026864;28;20626;-55
2022/05/21 11:22:25;;;;;;;8.77;1.60;;;19.50;99.90;;;;;;5042363;28;20318;-54
2022/05/21 11:25:01;;;;;;;6.90;1.77;;;19.50;99.90;;;;;;5029143;28;20254;-54
2022/05/21 11:27:41;;;;;;;3.83;1.30;;;19.60;99.90;;;;;;5021833;28;20212;-57
2022/05/21 11:30:12;;;;;;;10.03;2.00;;;18.90;99.90;;;;;;5033798;28;20204;-54
2022/05/21 11:38:29;;;;;;;5.40;1.47;;;19.30;99.90;;;;;;5046667;28;20580;-54
2022/05/21 11:41:28;;;;;;;4.40;1.30;;;19.60;93.10;;;;;;5035410;28;20242;-54
2022/05/21 11:47:21;;;;;;;4.27;1.80;;;19.90;99.90;;;;;;5025198;28;20341;-54
2022/05/21 11:50:13;;;;;;;6.37;2.07;;;19.90;93.40;;;;;;5021895;28;20201;-54
2022/05/21 11:52:40;;;;;;;7.57;2.17;;;19.70;61.50;;;;;;5016350;28;20678;-55
2022/05/21 11:55:12;;;;;;;6.03;1.23;;;19.40;97.30;;;;;;5018297;28;20205;-54
2022/05/21 11:57:54;;;;;;;4.77;1.20;;;18.90;99.90;;;;;;5017344;28;20212;-54
2022/05/21 12:00:21;;;;;;;4.80;1.07;;;18.50;99.90;;;;;;5025907;28;20706;-54
2022/05/21 12:02:53;;;;;;;9.93;1.93;;;19.10;99.90;;;;;;5019025;28;20625;-54
2022/05/21 12:05:40;;;;;;;5.20;1.60;;;19.30;99.90;;;;;;5027734;28;20219;-56
2022/05/21 12:08:12;;;;;;;7.10;1.63;;;19.30;99.90;;;;;;5026905;28;20227;-54
2022/05/21 12:11:15;;;;;;;4.73;1.70;;;19.50;99.90;;;;;;5029336;28;20700;-54
2022/05/21 12:13:49;;;;;;;5.53;1.50;;;20.00;79.50;;;;;;5026366;28;20259;-54
2022/05/21 12:16:20;;;;;;;5.00;1.47;;;20.00;23.90;;;;;;5029027;28;20672;-54
2022/05/21 12:18:48;;;;;;;6.73;1.30;;;19.80;72.60;;;;;;5033156;28;20594;-54
2022/05/21 12:21:32;;;;;;;4.83;1.30;;;19.50;61.20;;;;;;5031852;28;20251;-54
2022/05/21 12:24:08;;;;;;;5.67;1.33;;;19.50;99.90;;;;;;5034037;28;20212;-54
2022/05/21 12:26:40;;;;;;;5.93;1.53;;;19.30;99.90;;;;;;5031952;28;20215;-54
2022/05/21 12:29:18;;;;;;;5.47;1.60;;;19.30;91.10;;;;;;5034760;28;20510;-54
2022/05/21 12:31:51;;;;;;;7.60;1.37;;;19.10;99.90;;;;;;5036298;28;20231;-54
2022/05/21 12:34:35;;;;;;;5.93;1.40;;;19.00;95.30;;;;;;5040813;28;20292;-54
2022/05/21 12:37:09;;;;;;;8.47;2.00;;;19.40;93.10;;;;;;5031109;28;20262;-55
2022/05/21 12:40:00;;;;;;;4.03;1.93;;;19.70;70.00;;;;;;5029226;28;20223;-54
2022/05/21 12:42:57;;;;;;;7.80;2.00;;;19.90;99.90;;;;;;5025706;28;20703;-55
2022/05/21 12:45:47;;;;;;;4.57;1.93;;;20.60;33.90;;;;;;5023838;28;20212;-55
2022/05/21 12:48:28;;;;;;;6.33;1.67;;;20.10;1.00;;;;;;5023371;28;20294;-54
2022/05/21 12:51:01;;;;;;;6.70;1.60;;;20.10;21.30;;;;;;5026389;28;20237;-55
2022/05/21 12:53:49;;;;;;;7.70;1.80;;;20.20;1.00;;;;;;5029764;28;20207;-54
2022/05/21 12:56:24;;;;;;;7.27;1.50;;;20.00;56.10;;;;;;5029761;28;20288;-54
2022/05/21 12:59:23;;;;;;;7.80;1.90;;;20.00;26.20;;;;;;5028540;28;20258;-54
2022/05/21 13:01:57;;;;;;;7.10;2.10;;;20.10;76.80;;;;;;5030539;28;20207;-54
2022/05/21 13:04:26;;;;;;;4.93;1.40;;;20.00;82.50;;;;;;5030507;28;20537;-55
2022/05/21 13:07:06;;;;;;;4.50;1.50;;;19.80;1.00;;;;;;5025658;28;20275;-55
2022/05/21 13:09:36;;;;;;;5.03;1.13;;;19.60;9.70;;;;;;5030412;28;20250;-55
2022/05/21 13:12:06;;;;;;;5.17;1.40;;;19.30;85.30;;;;;;5029114;28;20242;-54
2022/05/21 13:14:36;;;;;;;4.77;1.30;;;19.40;99.90;;;;;;5028413;28;20241;-54
2022/05/21 13:17:06;;;;;;;7.87;2.20;;;19.30;99.00;;;;;;5030863;28;20749;-55
2022/05/21 13:19:42;;;;;;;4.73;1.50;;;19.30;99.90;;;;;;5036708;28;20659;-53
2022/05/21 13:22:50;;;;;;;4.17;1.43;;;19.20;90.70;;;;;;5035885;28;20266;-54
2022/05/21 13:25:21;;;;;;;6.07;1.67;;;19.30;68.90;;;;;;4998178;28;20294;-55
2022/05/21 13:27:50;;;;;;;2.90;1.20;;;19.30;50.90;;;;;;5028434;28;20318;-54
2022/05/21 13:30:21;;;;;;;5.30;1.60;;;19.30;99.90;;;;;;5030420;28;20723;-54
2022/05/21 13:32:56;;;;;;;4.63;1.43;;;19.60;99.90;;;;;;5030717;28;20255;-55
2022/05/21 13:35:40;;;;;;;5.17;1.50;;;19.70;83.10;;;;;;5032582;28;20718;-54
2022/05/21 13:38:13;;;;;;;3.33;1.60;;;19.80;56.00;;;;;;5030482;28;20294;-55
2022/05/21 13:40:53;;;;;;;6.50;1.73;;;19.50;21.70;;;;;;5030464;28;20280;-54
2022/05/21 13:43:31;;;;;;;4.10;1.77;;;19.60;99.90;;;;;;5024581;28;20656;-55